Pagrindinis puslapis
METAR-TAF:

METAR-TAF

Oro uostai :

Batervortas, Malaizija

platuma: 05-27-58N, ilguma: 100-23-28E, Aukštis: 2 m

Dabartinis oras

Ataskaita buvo paskelbta 59 minutes, ne 01:00 UTC
Vėjas 3 kt iš Rytų/Šiaurės Rytų, svyruoja nuo Šiaurės/Šiaurės Rytų ir Rytų
Temperatūra 29°C
Drėgmė 84%
Slėgis 1010 hPa
Matomumas: 6000 m
Mažai debesys ne aukštis 2000 ft

METAR: WMKB 010100Z 07003KT 030V100 6000 FEW020 29/26 Q1010 NOSIG

Laikas: 09:59 (01:59 UTC)

Prognozė

Ataskaita buvo paskelbta 2 valandos ir 59 minutes, ne 23:00 UTC
Prognozė galioja nuo 01 metu 00 UTC su 02 metu 00 UTC
Vėjas 3 kt nuo kintamojo kryptimis
Matomumas: 8000 m
Mažai debesys ne aukštis 2000 ft
Tapsmas
nuo 01 metu 04 UTC su 01 metu 05 UTC
Vėjas 10 kt iš Vakarų/Šiaurės Vakarų
Matomumas 10 km arba daugiau

TAF: WMKB 312300Z 0100/0200 VRB03KT 8000 FEW020 BECMG 0104/0105 30010KT 9999

Orai ataskaitas ir orų prognozės (METAR, TAF).

turimą stotys yra geltonos ir raudonos taškus žemėlapyje.

Perkelti pele per norėdami pamatyti stoties vardą.

Tada spustelėkite, norėdami matyti oro stebėjimo ir prognozės.

Norėdami pakeisti žemėlapį: spustelėkite ant žalios mygtukų su juodo kryžiaus žemyn,; žalią mygtuką su brūkšneliu, jei norite nutolinti; arba žalių rodyklių gretimoms žemėlapius.


METAR-TAF: